Time,TemperatureF,DewpointF,PressureIn,WindDirection,WindDirectionDegrees,WindSpeedMPH,WindSpeedGustMPH,Humidity,HourlyPrecipIn,Conditions,Clouds,dailyrainin,SoftwareType,DateUTC
2013-05-31 00:00:00,63.7,61.0,30.12,South,187,3.0,15.0,91,0.00,,---,0.00,VWS V14.01,2013-05-31 04:00:00,
2013-05-31 00:01:00,63.7,61.0,30.12,WNW,289,4.0,15.0,91,0.00,,---,0.00,VWS V14.01,2013-05-31 04:01:00,
2013-05-31 00:03:00,63.6,60.9,30.12,SSW,210,11.0,14.0,91,0.00,,---,0.00,VWS V14.01,2013-05-31 04:03:00,
2013-05-31 00:04:00,63.5,61.1,30.12,SSE,167,8.0,14.0,92,0.00,,---,0.00,VWS V14.01,2013-05-31 04:04:00,
2013-05-31 00:09:00,63.3,60.6,30.12,South,176,6.0,14.0,91,0.00,,---,0.00,VWS V14.01,2013-05-31 04:09:00,
2013-05-31 00:14:00,62.7,60.0,30.12,WSW,243,7.0,14.0,91,0.00,,---,0.00,VWS V14.01,2013-05-31 04:14:00,
2013-05-31 00:19:00,62.3,60.0,30.12,SE,135,2.0,14.0,92,0.00,,---,0.00,VWS V14.01,2013-05-31 04:19:00,
2013-05-31 00:24:00,62.2,59.8,30.12,NNW,343,3.0,14.0,92,0.00,,---,0.00,VWS V14.01,2013-05-31 04:24:00,
2013-05-31 00:29:00,62.2,60.2,30.12,South,176,6.0,14.0,93,0.00,,---,0.00,VWS V14.01,2013-05-31 04:29:00,
2013-05-31 00:34:00,62.2,60.2,30.12,SSE,155,6.0,12.0,93,0.00,,---,0.00,VWS V14.01,2013-05-31 04:34:00,
2013-05-31 00:39:00,62.1,60.1,30.12,SSW,194,3.0,12.0,93,0.00,,---,0.00,VWS V14.01,2013-05-31 04:39:00,
2013-05-31 00:44:00,62.0,60.0,30.12,South,184,4.0,12.0,93,0.00,,---,0.00,VWS V14.01,2013-05-31 04:44:00,
2013-05-31 00:49:00,61.8,59.8,30.12,SW,221,4.0,12.0,93,0.00,,---,0.00,VWS V14.01,2013-05-31 04:49:00,
2013-05-31 00:54:00,61.7,59.7,30.12,SSW,209,5.0,12.0,93,0.00,,---,0.00,VWS V14.01,2013-05-31 04:54:00,
2013-05-31 00:59:00,61.3,59.3,30.12,South,172,5.0,12.0,93,0.00,,---,0.00,VWS V14.01,2013-05-31 04:59:00,
2013-05-31 01:04:00,61.3,59.3,30.12,South,181,8.0,11.0,93,0.00,,---,0.00,VWS V14.01,2013-05-31 05:04:00,
2013-05-31 01:09:00,61.3,59.3,30.12,SSE,162,5.0,12.0,93,0.00,,---,0.00,VWS V14.01,2013-05-31 05:09:00,
2013-05-31 01:14:00,61.1,59.4,30.12,SW,222,7.0,12.0,94,0.00,,---,0.00,VWS V14.01,2013-05-31 05:14:00,
2013-05-31 01:19:00,61.0,59.3,30.12,South,175,6.0,13.0,94,0.00,,---,0.00,VWS V14.01,2013-05-31 05:19:00,
2013-05-31 01:24:00,61.1,59.4,30.12,West,266,3.0,13.0,94,0.00,,---,0.00,VWS V14.01,2013-05-31 05:24:00,
2013-05-31 01:29:00,61.1,59.4,30.12,SSW,192,4.0,13.0,94,0.00,,---,0.00,VWS V14.01,2013-05-31 05:29:00,
2013-05-31 01:34:00,61.0,59.3,30.12,SSW,210,6.0,9.0,94,0.00,,---,0.00,VWS V14.01,2013-05-31 05:34:00,
2013-05-31 01:39:00,61.1,59.4,30.12,East,91,9.0,11.0,94,0.00,,---,0.00,VWS V14.01,2013-05-31 05:39:00,
2013-05-31 01:44:00,61.4,60.0,30.11,SSW,212,4.0,11.0,95,0.00,,---,0.00,VWS V14.01,2013-05-31 05:44:00,
2013-05-31 01:49:00,61.5,60.1,30.12,West,264,7.0,11.0,95,0.00,,---,0.00,VWS V14.01,2013-05-31 05:49:00,
2013-05-31 01:54:00,61.7,60.0,30.12,WSW,248,4.0,11.0,94,0.00,,---,0.00,VWS V14.01,2013-05-31 05:54:00,
2013-05-31 01:59:00,61.7,60.0,30.12,SE,124,4.0,11.0,94,0.00,,---,0.00,VWS V14.01,2013-05-31 05:59:00,
2013-05-31 02:04:00,61.7,60.0,30.12,SE,138,3.0,8.0,94,0.00,,---,0.00,VWS V14.01,2013-05-31 06:04:00,
2013-05-31 02:09:00,61.5,59.8,30.12,NE,35,4.0,8.0,94,0.00,,---,0.00,VWS V14.01,2013-05-31 06:09:00,
2013-05-31 02:14:00,61.5,59.8,30.12,NNW,334,5.0,8.0,94,0.00,,---,0.00,VWS V14.01,2013-05-31 06:14:00,
2013-05-31 02:19:00,61.3,59.6,30.12,SW,216,5.0,9.0,94,0.00,,---,0.00,VWS V14.01,2013-05-31 06:19:00,
2013-05-31 02:24:00,61.2,59.5,30.12,SW,215,5.0,9.0,94,0.00,,---,0.00,VWS V14.01,2013-05-31 06:24:00,
2013-05-31 02:29:00,61.1,59.4,30.12,SSW,195,5.0,9.0,94,0.00,,---,0.00,VWS V14.01,2013-05-31 06:29:00,
2013-05-31 02:34:00,61.1,59.4,30.12,NE,42,6.0,8.0,94,0.00,,---,0.00,VWS V14.01,2013-05-31 06:34:00,
2013-05-31 02:39:00,60.9,59.2,30.12,SW,214,5.0,9.0,94,0.00,,---,0.00,VWS V14.01,2013-05-31 06:39:00,
2013-05-31 02:44:00,61.0,59.3,30.12,SE,135,5.0,9.0,94,0.00,,---,0.00,VWS V14.01,2013-05-31 06:44:00,
2013-05-31 02:49:00,60.9,59.2,30.12,WSW,255,6.0,9.0,94,0.00,,---,0.00,VWS V14.01,2013-05-31 06:49:00,
2013-05-31 02:55:00,61.0,59.6,30.11,South,186,5.0,10.0,95,0.00,,---,0.00,VWS V14.01,2013-05-31 06:55:00,
2013-05-31 03:00:00,61.2,59.8,30.11,SW,233,2.0,10.0,95,0.00,,---,0.00,VWS V14.01,2013-05-31 07:00:00,
2013-05-31 03:05:00,61.4,60.0,30.11,NNW,327,2.0,8.0,95,0.00,,---,0.00,VWS V14.01,2013-05-31 07:05:00,
2013-05-31 03:10:00,61.6,60.2,30.11,SSE,155,2.0,8.0,95,0.00,,---,0.00,VWS V14.01,2013-05-31 07:10:00,
2013-05-31 03:15:00,61.5,59.8,30.11,ENE,67,3.0,8.0,94,0.00,,---,0.00,VWS V14.01,2013-05-31 07:15:00,
2013-05-31 03:20:00,61.5,60.1,30.11,West,266,2.0,8.0,95,0.00,,---,0.00,VWS V14.01,2013-05-31 07:20:00,
2013-05-31 03:25:00,61.4,60.0,30.11,SW,235,1.0,8.0,95,0.00,,---,0.00,VWS V14.01,2013-05-31 07:25:00,
2013-05-31 03:30:00,61.0,59.3,30.11,South,188,3.0,8.0,94,0.00,,---,0.00,VWS V14.01,2013-05-31 07:30:00,
2013-05-31 03:35:00,61.0,59.6,30.11,SSE,148,6.0,7.0,95,0.00,,---,0.00,VWS V14.01,2013-05-31 07:35:00,
2013-05-31 03:40:00,60.7,59.0,30.11,SSE,167,4.0,9.0,94,0.00,,---,0.00,VWS V14.01,2013-05-31 07:40:00,
2013-05-31 03:45:00,61.0,59.6,30.11,SE,124,6.0,9.0,95,0.00,,---,0.00,VWS V14.01,2013-05-31 07:45:00,
2013-05-31 03:50:00,60.9,59.5,30.11,SW,230,2.0,9.0,95,0.00,,---,0.00,VWS V14.01,2013-05-31 07:50:00,
2013-05-31 03:55:00,61.1,59.7,30.11,SSW,212,4.0,9.0,95,0.00,,---,0.00,VWS V14.01,2013-05-31 07:55:00,
2013-05-31 04:00:00,61.2,59.8,30.11,SW,223,3.0,9.0,95,0.00,,---,0.00,VWS V14.01,2013-05-31 08:00:00,
2013-05-31 04:05:00,61.3,59.9,30.12,SSW,195,3.0,6.0,95,0.00,,---,0.00,VWS V14.01,2013-05-31 08:05:00,
2013-05-31 04:10:00,61.3,59.9,30.12,West,261,3.0,6.0,95,0.00,,---,0.00,VWS V14.01,2013-05-31 08:10:00,
2013-05-31 04:15:00,61.3,59.9,30.12,East,82,3.0,6.0,95,0.00,,---,0.00,VWS V14.01,2013-05-31 08:15:00,
2013-05-31 04:20:00,61.2,59.8,30.12,WNW,290,2.0,7.0,95,0.00,,---,0.00,VWS V14.01,2013-05-31 08:20:00,
2013-05-31 04:25:00,61.2,59.5,30.12,East,90,3.0,7.0,94,0.00,,---,0.00,VWS V14.01,2013-05-31 08:25:00,
2013-05-31 04:30:00,61.1,59.7,30.12,ENE,70,3.0,9.0,95,0.00,,---,0.00,VWS V14.01,2013-05-31 08:30:00,
2013-05-31 04:35:00,61.1,59.7,30.12,South,186,2.0,8.0,95,0.00,,---,0.00,VWS V14.01,2013-05-31 08:35:00,
2013-05-31 04:40:00,60.8,59.4,30.12,ESE,107,5.0,9.0,95,0.00,,---,0.00,VWS V14.01,2013-05-31 08:40:00,
2013-05-31 04:45:00,60.7,59.3,30.12,ESE,115,8.0,9.0,95,0.00,,---,0.00,VWS V14.01,2013-05-31 08:45:00,
2013-05-31 04:50:00,60.6,59.2,30.12,SW,218,5.0,9.0,95,0.00,,---,0.00,VWS V14.01,2013-05-31 08:50:00,
2013-05-31 04:55:00,60.9,59.8,30.12,South,184,2.0,9.0,96,0.00,,---,0.00,VWS V14.01,2013-05-31 08:55:00,
2013-05-31 05:00:00,60.9,59.5,30.12,SW,230,2.0,9.0,95,0.00,,---,0.00,VWS V14.01,2013-05-31 09:00:00,
2013-05-31 05:05:00,61.2,59.8,30.12,SE,133,5.0,5.0,95,0.00,,---,0.00,VWS V14.01,2013-05-31 09:05:00,
2013-05-31 05:10:00,61.1,59.7,30.12,SSW,200,4.0,8.0,95,0.00,,---,0.00,VWS V14.01,2013-05-31 09:10:00,
2013-05-31 05:15:00,61.1,59.7,30.12,SE,142,3.0,8.0,95,0.00,,---,0.00,VWS V14.01,2013-05-31 09:15:00,
2013-05-31 05:21:00,61.6,60.5,30.12,WNW,283,3.0,8.0,96,0.00,,---,0.00,VWS V14.01,2013-05-31 09:21:00,
2013-05-31 05:26:00,61.8,60.7,30.12,SSW,195,4.0,8.0,96,0.00,,---,0.00,VWS V14.01,2013-05-31 09:26:00,
2013-05-31 05:31:00,62.2,61.0,30.13,SSE,156,1.0,8.0,96,0.00,,---,0.00,VWS V14.01,2013-05-31 09:31:00,
2013-05-31 05:36:00,62.3,60.8,30.13,SW,236,2.0,6.0,95,0.00,,---,0.00,VWS V14.01,2013-05-31 09:36:00,
2013-05-31 05:41:00,62.3,60.8,30.13,SSE,160,4.0,7.0,95,0.00,,---,0.00,VWS V14.01,2013-05-31 09:41:00,
2013-05-31 05:46:00,62.6,61.2,30.13,SW,226,3.0,7.0,95,0.00,,---,0.00,VWS V14.01,2013-05-31 09:46:00,
2013-05-31 05:51:00,62.6,61.2,30.13,WSW,242,1.0,7.0,95,0.00,,---,0.00,VWS V14.01,2013-05-31 09:51:00,
2013-05-31 05:56:00,63.0,61.5,30.13,WSW,255,2.0,7.0,95,0.00,,---,0.00,VWS V14.01,2013-05-31 09:56:00,
2013-05-31 06:01:00,63.7,62.5,30.13,SSE,158,0.0,7.0,96,0.00,,---,0.00,VWS V14.01,2013-05-31 10:01:00,
2013-05-31 06:06:00,65.1,64.2,30.13,SW,226,2.0,4.0,97,0.00,,---,0.00,VWS V14.01,2013-05-31 10:06:00,
2013-05-31 06:13:00,65.6,64.1,30.14,WSW,245,2.0,4.0,95,0.00,,---,0.00,VWS V14.01,2013-05-31 10:13:00,
2013-05-31 06:18:00,65.1,63.0,30.14,West,267,2.0,4.0,93,0.00,,---,0.00,VWS V14.01,2013-05-31 10:18:00,
2013-05-31 06:23:00,65.0,62.9,30.14,SW,233,2.0,4.0,93,0.00,,---,0.00,VWS V14.01,2013-05-31 10:23:00,
2013-05-31 06:28:00,64.6,61.9,30.14,West,268,2.0,5.0,91,0.00,,---,0.00,VWS V14.01,2013-05-31 10:28:00,
2013-05-31 06:33:00,64.6,62.2,30.14,North,4,0.0,2.0,92,0.00,,---,0.00,VWS V14.01,2013-05-31 10:33:00,
2013-05-31 06:38:00,65.6,63.5,30.14,South,176,2.0,4.0,93,0.00,,---,0.00,VWS V14.01,2013-05-31 10:38:00,
2013-05-31 06:43:00,66.7,64.9,30.14,SW,236,3.0,4.0,94,0.00,,---,0.00,VWS V14.01,2013-05-31 10:43:00,
2013-05-31 06:48:00,68.3,65.9,30.14,SW,214,2.0,4.0,92,0.00,,---,0.00,VWS V14.01,2013-05-31 10:48:00,
2013-05-31 06:53:00,68.2,63.5,30.14,West,275,2.0,4.0,85,0.00,,---,0.00,VWS V14.01,2013-05-31 10:53:00,
2013-05-31 06:58:00,67.2,62.9,30.14,West,280,4.0,6.0,86,0.00,,---,0.00,VWS V14.01,2013-05-31 10:58:00,
2013-05-31 07:03:00,67.1,63.1,30.14,NNW,335,2.0,4.0,87,0.00,,---,0.00,VWS V14.01,2013-05-31 11:03:00,
2013-05-31 07:08:00,66.9,62.2,30.14,SSW,204,2.0,5.0,85,0.00,,---,0.00,VWS V14.01,2013-05-31 11:08:00,
2013-05-31 07:13:00,67.0,62.7,30.14,West,259,2.0,5.0,86,0.00,,---,0.00,VWS V14.01,2013-05-31 11:13:00,
2013-05-31 07:18:00,68.4,64.7,30.14,WSW,238,0.0,5.0,88,0.00,,---,0.00,VWS V14.01,2013-05-31 11:18:00,
2013-05-31 07:23:00,69.3,64.3,30.14,WNW,299,0.0,5.0,84,0.00,,---,0.00,VWS V14.01,2013-05-31 11:23:00,
2013-05-31 07:28:00,69.2,63.5,30.14,SE,129,1.0,5.0,82,0.00,,---,0.00,VWS V14.01,2013-05-31 11:28:00,
2013-05-31 07:33:00,70.0,64.3,30.14,South,191,1.0,2.0,82,0.00,,---,0.00,VWS V14.01,2013-05-31 11:33:00,
2013-05-31 07:38:00,70.1,63.3,30.15,WSW,245,1.0,3.0,79,0.00,,---,0.00,VWS V14.01,2013-05-31 11:38:00,
2013-05-31 07:43:00,70.4,63.6,30.15,WSW,258,2.0,3.0,79,0.00,,---,0.00,VWS V14.01,2013-05-31 11:43:00,
2013-05-31 07:48:00,70.6,63.4,30.15,West,277,3.0,4.0,78,0.00,,---,0.00,VWS V14.01,2013-05-31 11:48:00,
2013-05-31 07:54:00,70.3,63.1,30.15,SSW,197,0.0,4.0,78,0.00,,---,0.00,VWS V14.01,2013-05-31 11:54:00,
2013-05-31 07:59:00,70.7,63.9,30.15,NE,35,1.0,4.0,79,0.00,,---,0.00,VWS V14.01,2013-05-31 11:59:00,
2013-05-31 08:04:00,70.7,63.1,30.15,SW,225,2.0,4.0,77,0.00,,---,0.00,VWS V14.01,2013-05-31 12:04:00,
2013-05-31 08:09:00,69.9,62.0,30.15,SSW,196,3.0,6.0,76,0.00,,---,0.00,VWS V14.01,2013-05-31 12:09:00,
2013-05-31 08:14:00,69.1,61.6,30.15,SW,232,4.0,7.0,77,0.00,,---,0.00,VWS V14.01,2013-05-31 12:14:00,
2013-05-31 08:19:00,69.1,62.3,30.15,ESE,116,2.0,7.0,79,0.00,,---,0.00,VWS V14.01,2013-05-31 12:19:00,
2013-05-31 08:24:00,69.3,62.5,30.15,NNW,333,2.0,7.0,79,0.00,,---,0.00,VWS V14.01,2013-05-31 12:24:00,
2013-05-31 08:29:00,69.7,62.9,30.15,WNW,282,1.0,7.0,79,0.00,,---,0.00,VWS V14.01,2013-05-31 12:29:00,
2013-05-31 08:34:00,69.9,63.1,30.15,West,274,2.0,5.0,79,0.00,,---,0.00,VWS V14.01,2013-05-31 12:34:00,
2013-05-31 08:39:00,70.6,63.0,30.15,SSW,201,1.0,5.0,77,0.00,,---,0.00,VWS V14.01,2013-05-31 12:39:00,
2013-05-31 08:44:00,71.1,63.2,30.15,West,259,1.0,5.0,76,0.00,,---,0.00,VWS V14.01,2013-05-31 12:44:00,
2013-05-31 08:49:00,71.9,63.5,30.15,NW,311,2.0,5.0,75,0.00,,---,0.00,VWS V14.01,2013-05-31 12:49:00,
2013-05-31 08:54:00,71.2,62.5,30.15,South,189,3.0,9.0,74,0.00,,---,0.00,VWS V14.01,2013-05-31 12:54:00,
2013-05-31 08:59:00,70.2,61.9,30.15,North,352,2.0,9.0,75,0.00,,---,0.00,VWS V14.01,2013-05-31 12:59:00,
2013-05-31 09:04:00,69.5,62.0,30.14,SSW,193,3.0,10.0,77,0.00,,---,0.00,VWS V14.01,2013-05-31 13:04:00,
2013-05-31 09:09:00,69.0,61.9,30.15,SSE,166,6.0,11.0,78,0.00,,---,0.00,VWS V14.01,2013-05-31 13:09:00,
2013-05-31 09:14:00,68.7,61.9,30.15,North,355,2.0,11.0,79,0.00,,---,0.00,VWS V14.01,2013-05-31 13:14:00,
2013-05-31 09:19:00,68.8,61.7,30.15,WSW,243,3.0,11.0,78,0.00,,---,0.00,VWS V14.01,2013-05-31 13:19:00,
2013-05-31 09:24:00,68.7,61.6,30.15,NW,306,4.0,11.0,78,0.00,,---,0.00,VWS V14.01,2013-05-31 13:24:00,
2013-05-31 09:29:00,68.3,61.2,30.14,SE,136,4.0,11.0,78,0.00,,---,0.00,VWS V14.01,2013-05-31 13:29:00,
2013-05-31 09:34:00,68.0,61.6,30.14,WSW,255,4.0,10.0,80,0.00,,---,0.00,VWS V14.01,2013-05-31 13:34:00,
2013-05-31 09:39:00,68.1,61.7,30.14,SW,216,4.0,11.0,80,0.00,,---,0.00,VWS V14.01,2013-05-31 13:39:00,
2013-05-31 09:44:00,68.3,61.5,30.14,WNW,300,2.0,11.0,79,0.00,,---,0.00,VWS V14.01,2013-05-31 13:44:00,
2013-05-31 09:49:00,68.6,62.2,30.14,NE,34,4.0,11.0,80,0.00,,---,0.00,VWS V14.01,2013-05-31 13:49:00,
2013-05-31 09:54:00,68.8,62.0,30.14,NNW,335,3.0,11.0,79,0.00,,---,0.00,VWS V14.01,2013-05-31 13:54:00,
2013-05-31 09:59:00,69.2,62.8,30.14,SW,231,4.0,11.0,80,0.00,,---,0.00,VWS V14.01,2013-05-31 13:59:00,
2013-05-31 10:04:00,69.3,62.5,30.14,SSW,198,9.0,9.0,79,0.00,,---,0.00,VWS V14.01,2013-05-31 14:04:00,
2013-05-31 10:09:00,69.2,62.4,30.14,South,188,5.0,11.0,79,0.00,,---,0.00,VWS V14.01,2013-05-31 14:09:00,
2013-05-31 10:14:00,69.4,62.6,30.14,SW,214,6.0,11.0,79,0.00,,---,0.00,VWS V14.01,2013-05-31 14:14:00,
2013-05-31 10:19:00,69.6,62.8,30.13,SW,222,8.0,11.0,79,0.00,,---,0.00,VWS V14.01,2013-05-31 14:19:00,
2013-05-31 10:24:00,70.0,62.8,30.14,SSW,201,6.0,13.0,78,0.00,,---,0.00,VWS V14.01,2013-05-31 14:24:00,
2013-05-31 10:29:00,69.5,62.3,30.14,South,176,5.0,14.0,78,0.00,,---,0.00,VWS V14.01,2013-05-31 14:29:00,
2013-05-31 10:35:00,69.4,62.6,30.14,WSW,243,7.0,10.0,79,0.00,,---,0.00,VWS V14.01,2013-05-31 14:35:00,
2013-05-31 10:40:00,69.4,62.6,30.14,NNE,27,4.0,12.0,79,0.00,,---,0.00,VWS V14.01,2013-05-31 14:40:00,
2013-05-31 10:45:00,69.3,62.5,30.14,SW,225,7.0,12.0,79,0.00,,---,0.00,VWS V14.01,2013-05-31 14:45:00,
2013-05-31 10:50:00,69.3,62.5,30.14,South,186,4.0,12.0,79,0.00,,---,0.00,VWS V14.01,2013-05-31 14:50:00,
2013-05-31 10:56:00,69.3,62.5,30.14,WSW,246,7.0,12.0,79,0.00,,---,0.00,VWS V14.01,2013-05-31 14:56:00,
2013-05-31 11:01:00,69.3,62.2,30.14,SW,217,12.0,12.0,78,0.00,,---,0.00,VWS V14.01,2013-05-31 15:01:00,
2013-05-31 11:06:00,69.4,62.6,30.14,SE,129,5.0,12.0,79,0.00,,---,0.00,VWS V14.01,2013-05-31 15:06:00,
2013-05-31 11:11:00,69.7,62.9,30.14,North,4,6.0,12.0,79,0.00,,---,0.00,VWS V14.01,2013-05-31 15:11:00,
2013-05-31 11:16:00,69.9,62.7,30.14,East,95,13.0,13.0,78,0.00,,---,0.00,VWS V14.01,2013-05-31 15:16:00,
2013-05-31 11:21:00,70.4,63.2,30.14,SSW,203,4.0,13.0,78,0.00,,---,0.00,VWS V14.01,2013-05-31 15:21:00,
2013-05-31 11:26:00,70.8,63.6,30.14,SSW,195,11.0,13.0,78,0.00,,---,0.00,VWS V14.01,2013-05-31 15:26:00,
2013-05-31 11:31:00,71.0,63.4,30.13,NNW,347,4.0,14.0,77,0.00,,---,0.00,VWS V14.01,2013-05-31 15:31:00,
2013-05-31 11:36:00,71.1,63.5,30.14,SW,221,10.0,13.0,77,0.00,,---,0.00,VWS V14.01,2013-05-31 15:36:00,
2013-05-31 11:41:00,71.2,63.3,30.13,WSW,245,8.0,13.0,76,0.00,,---,0.00,VWS V14.01,2013-05-31 15:41:00,
2013-05-31 11:46:00,71.4,63.8,30.13,South,169,6.0,13.0,77,0.00,,---,0.00,VWS V14.01,2013-05-31 15:46:00,
2013-05-31 11:51:00,72.0,64.0,30.13,SW,224,4.0,13.0,76,0.00,,---,0.00,VWS V14.01,2013-05-31 15:51:00,
2013-05-31 11:56:00,72.3,63.9,30.13,SSW,207,4.0,13.0,75,0.00,,---,0.00,VWS V14.01,2013-05-31 15:56:00,
2013-05-31 12:01:00,72.3,63.6,30.13,SSE,148,4.0,13.0,74,0.00,,---,0.00,VWS V14.01,2013-05-31 16:01:00,
2013-05-31 12:06:00,72.1,63.8,30.13,NE,48,4.0,12.0,75,0.00,,---,0.00,VWS V14.01,2013-05-31 16:06:00,
2013-05-31 12:11:00,72.1,63.4,30.13,SSE,153,6.0,12.0,74,0.00,,---,0.00,VWS V14.01,2013-05-31 16:11:00,
2013-05-31 12:16:00,71.8,63.5,30.13,SSE,163,5.0,12.0,75,0.00,,---,0.00,VWS V14.01,2013-05-31 16:16:00,
2013-05-31 12:21:00,72.0,63.7,30.12,SE,145,7.0,12.0,75,0.00,,---,0.00,VWS V14.01,2013-05-31 16:21:00,
2013-05-31 12:26:00,72.2,63.8,30.13,South,186,5.0,12.0,75,0.00,,---,0.00,VWS V14.01,2013-05-31 16:26:00,
2013-05-31 12:31:00,71.9,63.2,30.13,WSW,254,8.0,12.0,74,0.00,,---,0.00,VWS V14.01,2013-05-31 16:31:00,
2013-05-31 12:36:00,71.6,63.3,30.13,SSW,193,7.0,10.0,75,0.00,,---,0.00,VWS V14.01,2013-05-31 16:36:00,
2013-05-31 12:41:00,71.5,63.5,30.13,SSW,198,7.0,13.0,76,0.00,,---,0.00,VWS V14.01,2013-05-31 16:41:00,
2013-05-31 12:46:00,71.1,63.2,30.12,SSW,203,4.0,13.0,76,0.00,,---,0.00,VWS V14.01,2013-05-31 16:46:00,
2013-05-31 12:51:00,71.2,63.6,30.12,NNW,343,7.0,13.0,77,0.00,,---,0.00,VWS V14.01,2013-05-31 16:51:00,
2013-05-31 12:56:00,71.5,63.9,30.12,NE,49,5.0,13.0,77,0.00,,---,0.00,VWS V14.01,2013-05-31 16:56:00,
2013-05-31 13:01:00,71.7,63.7,30.12,SW,233,8.0,8.0,76,0.00,,---,0.00,VWS V14.01,2013-05-31 17:01:00,
2013-05-31 13:06:00,71.5,63.5,30.12,SE,141,4.0,11.0,76,0.00,,---,0.00,VWS V14.01,2013-05-31 17:06:00,
2013-05-31 13:11:00,71.3,63.7,30.12,SW,219,12.0,13.0,77,0.00,,---,0.00,VWS V14.01,2013-05-31 17:11:00,
2013-05-31 13:16:00,71.8,64.2,30.13,SW,224,7.0,13.0,77,0.00,,---,0.00,VWS V14.01,2013-05-31 17:16:00,
2013-05-31 13:21:00,71.9,63.9,30.12,SSE,158,10.0,13.0,76,0.00,,---,0.00,VWS V14.01,2013-05-31 17:21:00,
2013-05-31 13:26:00,72.4,64.8,30.12,NW,307,2.0,13.0,77,0.00,,---,0.00,VWS V14.01,2013-05-31 17:26:00,
2013-05-31 13:31:00,73.4,65.0,30.12,WNW,291,4.0,6.0,75,0.00,,---,0.00,VWS V14.01,2013-05-31 17:31:00,
2013-05-31 13:36:00,73.5,64.7,30.12,WSW,238,9.0,13.0,74,0.00,,---,0.00,VWS V14.01,2013-05-31 17:36:00,
2013-05-31 13:41:00,73.3,64.9,30.12,WNW,284,5.0,13.0,75,0.00,,---,0.00,VWS V14.01,2013-05-31 17:41:00,
2013-05-31 13:46:00,73.3,64.9,30.11,South,191,10.0,13.0,75,0.00,,---,0.00,VWS V14.01,2013-05-31 17:46:00,
2013-05-31 13:51:00,73.2,64.4,30.11,WNW,294,4.0,13.0,74,0.00,,---,0.00,VWS V14.01,2013-05-31 17:51:00,
2013-05-31 13:56:00,72.4,64.0,30.11,SSW,193,8.0,13.0,75,0.00,,---,0.00,VWS V14.01,2013-05-31 17:56:00,
2013-05-31 14:01:00,72.1,63.8,30.11,NW,326,1.0,8.0,75,0.00,,---,0.00,VWS V14.01,2013-05-31 18:01:00,
2013-05-31 14:06:00,72.1,63.8,30.11,SE,127,8.0,12.0,75,0.00,,---,0.00,VWS V14.01,2013-05-31 18:06:00,
2013-05-31 14:11:00,72.1,64.1,30.11,West,279,8.0,13.0,76,0.00,,---,0.00,VWS V14.01,2013-05-31 18:11:00,
2013-05-31 14:16:00,72.4,64.4,30.11,West,266,4.0,14.0,76,0.00,,---,0.00,VWS V14.01,2013-05-31 18:16:00,
2013-05-31 14:21:00,72.2,64.2,30.10,SW,217,4.0,14.0,76,0.00,,---,0.00,VWS V14.01,2013-05-31 18:21:00,
2013-05-31 14:26:00,72.2,63.8,30.10,SSW,200,10.0,14.0,75,0.00,,---,0.00,VWS V14.01,2013-05-31 18:26:00,
2013-05-31 14:31:00,72.0,64.0,30.10,ENE,68,8.0,12.0,76,0.00,,---,0.00,VWS V14.01,2013-05-31 18:31:00,
2013-05-31 14:37:00,72.1,63.8,30.10,SSW,192,8.0,12.0,75,0.00,,---,0.00,VWS V14.01,2013-05-31 18:37:00,
2013-05-31 14:42:00,71.8,63.8,30.10,WSW,240,10.0,12.0,76,0.00,,---,0.00,VWS V14.01,2013-05-31 18:42:00,
2013-05-31 14:47:00,71.3,63.3,30.10,WNW,289,8.0,12.0,76,0.00,,---,0.00,VWS V14.01,2013-05-31 18:47:00,
2013-05-31 14:52:00,71.1,63.5,30.10,ESE,113,8.0,12.0,77,0.00,,---,0.00,VWS V14.01,2013-05-31 18:52:00,
2013-05-31 14:57:00,70.9,63.3,30.10,SSW,213,5.0,12.0,77,0.00,,---,0.00,VWS V14.01,2013-05-31 18:57:00,
2013-05-31 15:02:00,70.8,63.2,30.09,SSE,147,4.0,12.0,77,0.00,,---,0.00,VWS V14.01,2013-05-31 19:02:00,
2013-05-31 15:07:00,70.9,63.7,30.09,WSW,240,6.0,12.0,78,0.00,,---,0.00,VWS V14.01,2013-05-31 19:07:00,
2013-05-31 15:12:00,70.5,63.3,30.09,WNW,289,6.0,12.0,78,0.00,,---,0.00,VWS V14.01,2013-05-31 19:12:00,
2013-05-31 15:17:00,70.4,63.2,30.09,WSW,256,6.0,12.0,78,0.00,,---,0.00,VWS V14.01,2013-05-31 19:17:00,
2013-05-31 15:22:00,70.6,63.4,30.09,South,190,5.0,12.0,78,0.00,,---,0.00,VWS V14.01,2013-05-31 19:22:00,
2013-05-31 15:27:00,70.8,63.2,30.09,South,179,7.0,12.0,77,0.00,,---,0.00,VWS V14.01,2013-05-31 19:27:00,
2013-05-31 15:32:00,70.7,63.1,30.09,South,169,3.0,8.0,77,0.00,,---,0.00,VWS V14.01,2013-05-31 19:32:00,
2013-05-31 15:37:00,70.5,63.0,30.09,NE,39,6.0,13.0,77,0.00,,---,0.00,VWS V14.01,2013-05-31 19:37:00,
2013-05-31 15:42:00,70.1,62.9,30.09,SW,231,5.0,13.0,78,0.00,,---,0.00,VWS V14.01,2013-05-31 19:42:00,
2013-05-31 15:47:00,69.9,62.7,30.09,WSW,244,9.0,13.0,78,0.00,,---,0.00,VWS V14.01,2013-05-31 19:47:00,
2013-05-31 15:52:00,69.6,62.8,30.08,WSW,248,8.0,13.0,79,0.00,,---,0.00,VWS V14.01,2013-05-31 19:52:00,
2013-05-31 15:57:00,69.4,63.0,30.09,SW,234,3.0,13.0,80,0.00,,---,0.00,VWS V14.01,2013-05-31 19:57:00,
2013-05-31 16:02:00,70.0,63.2,30.08,SE,146,7.0,9.0,79,0.00,,---,0.00,VWS V14.01,2013-05-31 20:02:00,
2013-05-31 16:07:00,70.1,63.3,30.08,SSE,166,3.0,10.0,79,0.00,,---,0.00,VWS V14.01,2013-05-31 20:07:00,
2013-05-31 16:12:00,70.1,62.9,30.08,WSW,246,9.0,11.0,78,0.00,,---,0.00,VWS V14.01,2013-05-31 20:12:00,
2013-05-31 16:17:00,70.3,63.1,30.08,ESE,108,6.0,11.0,78,0.00,,---,0.00,VWS V14.01,2013-05-31 20:17:00,
2013-05-31 16:22:00,70.5,63.7,30.08,North,7,6.0,11.0,79,0.00,,---,0.00,VWS V14.01,2013-05-31 20:22:00,
2013-05-31 16:27:00,70.5,63.7,30.08,East,89,4.0,14.0,79,0.00,,---,0.00,VWS V14.01,2013-05-31 20:27:00,
2013-05-31 16:32:00,70.8,64.0,30.08,NE,37,3.0,8.0,79,0.00,,---,0.00,VWS V14.01,2013-05-31 20:32:00,
2013-05-31 16:37:00,70.9,63.7,30.07,SSW,205,2.0,11.0,78,0.00,,---,0.00,VWS V14.01,2013-05-31 20:37:00,
2013-05-31 16:42:00,70.7,63.9,30.07,SSE,161,4.0,12.0,79,0.00,,---,0.00,VWS V14.01,2013-05-31 20:42:00,
2013-05-31 16:47:00,70.9,64.1,30.07,SW,220,5.0,15.0,79,0.00,,---,0.00,VWS V14.01,2013-05-31 20:47:00,
2013-05-31 16:52:00,70.8,64.0,30.07,SSW,193,7.0,15.0,79,0.00,,---,0.00,VWS V14.01,2013-05-31 20:52:00,
2013-05-31 16:57:00,70.7,63.9,30.07,SE,129,6.0,15.0,79,0.00,,---,0.00,VWS V14.01,2013-05-31 20:57:00,
2013-05-31 17:02:00,70.5,63.7,30.07,SW,215,5.0,16.0,79,0.00,,---,0.00,VWS V14.01,2013-05-31 21:02:00,
2013-05-31 17:07:00,70.5,64.0,30.06,West,266,4.0,16.0,80,0.00,,---,0.00,VWS V14.01,2013-05-31 21:07:00,
2013-05-31 17:12:00,69.8,63.4,30.06,SW,225,6.0,16.0,80,0.00,,---,0.00,VWS V14.01,2013-05-31 21:12:00,
2013-05-31 17:17:00,68.9,63.2,30.06,SE,140,3.0,18.0,82,0.00,,---,0.00,VWS V14.01,2013-05-31 21:17:00,
2013-05-31 17:22:00,68.4,63.0,30.06,SW,226,7.0,18.0,83,0.00,,---,0.00,VWS V14.01,2013-05-31 21:22:00,
2013-05-31 17:27:00,68.1,63.1,30.06,WSW,237,7.0,18.0,84,0.00,,---,0.00,VWS V14.01,2013-05-31 21:27:00,
2013-05-31 17:32:00,68.0,63.0,30.06,SSE,167,5.0,11.0,84,0.00,,---,0.00,VWS V14.01,2013-05-31 21:32:00,
2013-05-31 17:37:00,67.9,62.9,30.06,West,266,6.0,17.0,84,0.00,,---,0.00,VWS V14.01,2013-05-31 21:37:00,
2013-05-31 17:43:00,67.6,62.9,30.05,South,181,6.0,17.0,85,0.00,,---,0.00,VWS V14.01,2013-05-31 21:43:00,
2013-05-31 17:48:00,67.5,62.8,30.05,SE,145,6.0,17.0,85,0.00,,---,0.00,VWS V14.01,2013-05-31 21:48:00,
2013-05-31 17:53:00,67.6,62.6,30.05,SW,234,7.0,17.0,84,0.00,,---,0.00,VWS V14.01,2013-05-31 21:53:00,
2013-05-31 17:58:00,67.9,62.9,30.05,SSW,196,6.0,17.0,84,0.00,,---,0.00,VWS V14.01,2013-05-31 21:58:00,
2013-05-31 18:03:00,68.4,63.0,30.05,South,175,8.0,12.0,83,0.00,,---,0.00,VWS V14.01,2013-05-31 22:03:00,
2013-05-31 18:08:00,68.8,62.7,30.05,SW,214,7.0,12.0,81,0.00,,---,0.00,VWS V14.01,2013-05-31 22:08:00,
2013-05-31 18:13:00,68.8,62.7,30.05,East,100,3.0,12.0,81,0.00,,---,0.00,VWS V14.01,2013-05-31 22:13:00,
2013-05-31 18:18:00,68.8,62.7,30.05,SSW,210,8.0,12.0,81,0.00,,---,0.00,VWS V14.01,2013-05-31 22:18:00,
2013-05-31 18:23:00,68.9,62.8,30.05,West,271,6.0,12.0,81,0.00,,---,0.00,VWS V14.01,2013-05-31 22:23:00,
2013-05-31 18:28:00,68.7,62.3,30.05,SSW,204,7.0,13.0,80,0.00,,---,0.00,VWS V14.01,2013-05-31 22:28:00,
2013-05-31 18:33:00,68.6,62.5,30.05,SSW,196,6.0,11.0,81,0.00,,---,0.00,VWS V14.01,2013-05-31 22:33:00,
2013-05-31 18:38:00,68.6,62.5,30.05,South,190,4.0,11.0,81,0.00,,---,0.00,VWS V14.01,2013-05-31 22:38:00,
2013-05-31 18:43:00,68.3,62.2,30.05,WSW,257,7.0,11.0,81,0.00,,---,0.00,VWS V14.01,2013-05-31 22:43:00,
2013-05-31 18:48:00,67.7,62.0,30.05,SE,139,10.0,11.0,82,0.00,,---,0.00,VWS V14.01,2013-05-31 22:48:00,
2013-05-31 18:53:00,67.3,62.0,30.05,SSW,203,3.0,11.0,83,0.00,,---,0.00,VWS V14.01,2013-05-31 22:53:00,
2013-05-31 18:58:00,67.1,61.8,30.05,South,186,4.0,12.0,83,0.00,,---,0.00,VWS V14.01,2013-05-31 22:58:00,
2013-05-31 19:03:00,67.2,61.9,30.05,SW,218,4.0,11.0,83,0.00,,---,0.00,VWS V14.01,2013-05-31 23:03:00,
2013-05-31 19:08:00,67.2,61.9,30.05,SSE,152,8.0,12.0,83,0.00,,---,0.00,VWS V14.01,2013-05-31 23:08:00,
2013-05-31 19:13:00,67.4,62.1,30.05,SSW,207,5.0,12.0,83,0.00,,---,0.00,VWS V14.01,2013-05-31 23:13:00,
2013-05-31 19:18:00,67.5,62.2,30.04,SSE,167,3.0,12.0,83,0.00,,---,0.00,VWS V14.01,2013-05-31 23:18:00,
2013-05-31 19:23:00,67.3,62.0,30.04,SSW,201,7.0,15.0,83,0.00,,---,0.00,VWS V14.01,2013-05-31 23:23:00,
2013-05-31 19:28:00,67.2,61.9,30.05,SSW,212,7.0,15.0,83,0.00,,---,0.00,VWS V14.01,2013-05-31 23:28:00,
2013-05-31 19:33:00,67.0,62.0,30.04,NNE,25,2.0,15.0,84,0.00,,---,0.00,VWS V14.01,2013-05-31 23:33:00,
2013-05-31 19:38:00,66.8,61.8,30.04,WSW,250,8.0,15.0,84,0.00,,---,0.00,VWS V14.01,2013-05-31 23:38:00,
2013-05-31 19:43:00,66.3,61.7,30.04,SSW,195,12.0,19.0,85,0.00,,---,0.00,VWS V14.01,2013-05-31 23:43:00,
2013-05-31 19:48:00,65.8,61.5,30.04,West,268,5.0,19.0,86,0.00,,---,0.00,VWS V14.01,2013-05-31 23:48:00,
2013-05-31 19:53:00,65.8,61.8,30.04,WSW,245,5.0,19.0,87,0.00,,---,0.00,VWS V14.01,2013-05-31 23:53:00,
2013-05-31 19:58:00,65.7,61.7,30.04,South,189,13.0,20.0,87,0.00,,---,0.00,VWS V14.01,2013-05-31 23:58:00,
2013-05-31 20:03:00,65.5,61.9,30.04,SSW,205,12.0,18.0,88,0.00,,---,0.00,VWS V14.01,2013-06-01 00:03:00,
2013-05-31 20:08:00,65.2,61.6,30.04,SSW,198,9.0,18.0,88,0.00,,---,0.00,VWS V14.01,2013-06-01 00:08:00,
2013-05-31 20:13:00,65.0,61.4,30.04,SE,140,5.0,18.0,88,0.00,,---,0.00,VWS V14.01,2013-06-01 00:13:00,
2013-05-31 20:18:00,64.7,61.4,30.04,South,171,9.0,18.0,89,0.00,,---,0.00,VWS V14.01,2013-06-01 00:18:00,
2013-05-31 20:23:00,64.5,61.2,30.04,SSW,211,6.0,18.0,89,0.00,,---,0.00,VWS V14.01,2013-06-01 00:23:00,
2013-05-31 20:28:00,64.3,61.3,30.04,SW,222,8.0,18.0,90,0.00,,---,0.00,VWS V14.01,2013-06-01 00:28:00,
2013-05-31 20:33:00,64.3,61.3,30.04,SSW,207,7.0,17.0,90,0.00,,---,0.00,VWS V14.01,2013-06-01 00:33:00,
2013-05-31 20:38:00,64.2,61.2,30.04,ESE,122,8.0,17.0,90,0.00,,---,0.00,VWS V14.01,2013-06-01 00:38:00,
2013-05-31 20:43:00,63.9,60.9,30.04,WSW,256,12.0,17.0,90,0.00,,---,0.00,VWS V14.01,2013-06-01 00:43:00,
2013-05-31 20:48:00,63.7,61.0,30.04,NE,35,1.0,17.0,91,0.00,,---,0.00,VWS V14.01,2013-06-01 00:48:00,
2013-05-31 20:53:00,63.5,60.8,30.04,East,94,2.0,17.0,91,0.00,,---,0.00,VWS V14.01,2013-06-01 00:53:00,
2013-05-31 20:58:00,63.3,60.6,30.04,SSE,148,8.0,17.0,91,0.00,,---,0.00,VWS V14.01,2013-06-01 00:58:00,
2013-05-31 21:04:00,63.2,60.5,30.04,SW,233,8.0,12.0,91,0.00,,---,0.00,VWS V14.01,2013-06-01 01:04:00,
2013-05-31 21:09:00,63.1,60.4,30.04,ENE,58,4.0,12.0,91,0.00,,---,0.00,VWS V14.01,2013-06-01 01:09:00,
2013-05-31 21:14:00,63.0,60.3,30.04,SE,136,8.0,13.0,91,0.00,,---,0.00,VWS V14.01,2013-06-01 01:14:00,
2013-05-31 21:18:00,63.0,60.3,30.05,SE,139,5.0,13.0,91,0.00,,---,0.00,VWS V14.01,2013-06-01 01:18:00,
2013-05-31 21:24:00,62.9,60.2,30.05,SSW,200,9.0,13.0,91,0.00,,---,0.00,VWS V14.01,2013-06-01 01:24:00,
2013-05-31 21:29:00,62.7,60.3,30.05,WSW,237,11.0,13.0,92,0.00,,---,0.00,VWS V14.01,2013-06-01 01:29:00,
2013-05-31 21:34:00,62.8,60.5,30.05,North,357,3.0,12.0,92,0.00,,---,0.00,VWS V14.01,2013-06-01 01:34:00,
2013-05-31 21:39:00,62.8,60.5,30.05,SW,217,10.0,12.0,92,0.00,,---,0.00,VWS V14.01,2013-06-01 01:39:00,
2013-05-31 21:44:00,62.8,60.5,30.05,SSW,200,7.0,13.0,92,0.00,,---,0.00,VWS V14.01,2013-06-01 01:44:00,
2013-05-31 21:49:00,62.8,60.5,30.05,SW,219,7.0,13.0,92,0.00,,---,0.00,VWS V14.01,2013-06-01 01:49:00,
2013-05-31 21:54:00,62.9,60.2,30.05,SW,219,6.0,13.0,91,0.00,,---,0.00,VWS V14.01,2013-06-01 01:54:00,
2013-05-31 21:59:00,62.9,60.2,30.05,East,91,5.0,13.0,91,0.00,,---,0.00,VWS V14.01,2013-06-01 01:59:00,
2013-05-31 22:04:00,62.8,60.1,30.06,SSW,207,7.0,10.0,91,0.00,,---,0.00,VWS V14.01,2013-06-01 02:04:00,
2013-05-31 22:09:00,63.0,60.6,30.06,WSW,245,10.0,12.0,92,0.00,,---,0.00,VWS V14.01,2013-06-01 02:09:00,
2013-05-31 22:14:00,63.1,60.7,30.06,SW,218,5.0,14.0,92,0.00,,---,0.00,VWS V14.01,2013-06-01 02:14:00,
2013-05-31 22:19:00,63.1,60.7,30.06,SE,125,6.0,14.0,92,0.00,,---,0.00,VWS V14.01,2013-06-01 02:19:00,
2013-05-31 22:24:00,63.0,60.6,30.06,SW,217,7.0,14.0,92,0.00,,---,0.00,VWS V14.01,2013-06-01 02:24:00,
2013-05-31 22:29:00,62.7,60.3,30.06,WSW,250,7.0,14.0,92,0.00,,---,0.00,VWS V14.01,2013-06-01 02:29:00,
2013-05-31 22:34:00,62.5,60.2,30.06,WSW,246,9.0,13.0,92,0.00,,---,0.00,VWS V14.01,2013-06-01 02:34:00,
2013-05-31 22:39:00,62.4,60.0,30.06,SSE,158,7.0,13.0,92,0.00,,---,0.00,VWS V14.01,2013-06-01 02:39:00,
2013-05-31 22:44:00,62.2,59.8,30.07,SSE,153,3.0,13.0,92,0.00,,---,0.00,VWS V14.01,2013-06-01 02:44:00,
2013-05-31 22:49:00,62.0,59.7,30.07,SSW,213,5.0,13.0,92,0.00,,---,0.00,VWS V14.01,2013-06-01 02:49:00,
2013-05-31 22:54:00,61.8,59.8,30.06,SW,221,4.0,13.0,93,0.00,,---,0.00,VWS V14.01,2013-06-01 02:54:00,
2013-05-31 22:59:00,61.6,59.6,30.06,WSW,249,4.0,13.0,93,0.00,,---,0.00,VWS V14.01,2013-06-01 02:59:00,
2013-05-31 23:04:00,61.6,59.6,30.07,SSE,155,4.0,9.0,93,0.00,,---,0.00,VWS V14.01,2013-06-01 03:04:00,
2013-05-31 23:10:00,61.5,59.5,30.06,SSW,212,3.0,10.0,93,0.00,,---,0.00,VWS V14.01,2013-06-01 03:10:00,
2013-05-31 23:15:00,61.4,59.7,30.06,SW,221,5.0,10.0,94,0.00,,---,0.00,VWS V14.01,2013-06-01 03:15:00,
2013-05-31 23:20:00,61.4,59.7,30.06,SSW,203,3.0,10.0,94,0.00,,---,0.00,VWS V14.01,2013-06-01 03:20:00,
2013-05-31 23:25:00,61.5,59.8,30.06,SW,226,9.0,11.0,94,0.00,,---,0.00,VWS V14.01,2013-06-01 03:25:00,
2013-05-31 23:30:00,61.4,59.7,30.06,South,172,5.0,11.0,94,0.00,,---,0.00,VWS V14.01,2013-06-01 03:30:00,
2013-05-31 23:35:00,61.4,59.7,30.06,WNW,284,1.0,9.0,94,0.00,,---,0.00,VWS V14.01,2013-06-01 03:35:00,
2013-05-31 23:40:00,61.5,59.8,30.06,SSE,150,5.0,10.0,94,0.00,,---,0.00,VWS V14.01,2013-06-01 03:40:00,
2013-05-31 23:45:00,61.2,59.5,30.06,SSW,200,6.0,10.0,94,0.00,,---,0.00,VWS V14.01,2013-06-01 03:45:00,
2013-05-31 23:50:00,61.2,59.8,30.06,WSW,248,5.0,10.0,95,0.00,,---,0.00,VWS V14.01,2013-06-01 03:50:00,
2013-05-31 23:56:00,61.0,59.6,30.06,NE,37,5.0,11.0,95,0.00,,---,0.00,VWS V14.01,2013-06-01 03:56:00,